ジョージタウン の空港の天気 - METARとTAF

チェディ・ジェーガン国際空港 ( SYCJ / GEO ) - ガイアナ ジョージタウン
飛行場実況気象(Metar)
観測時間01/16 14:00 GYT (01/16 18:00 UTC)
風向・風速東北東 7m/s
視程8000m
天気現象雷 しゅう雨
全天の8割程度の雲 雲底高度 490m
全天の4割程度の雲 雲底高度 1130m
全天を覆う雲 雲底高度 2440m
少しの雲 雲底高度 550m
気温25℃
湿度94%
気圧1011hPa
METARSYCJ 161800Z 07014KT 8000 TS SHRA BKN016 SCT037 OVC080 FEW018CB 25/24 Q1011 NOSIG RMK CB S-NW
過去の天気等 Google飛行場航空写真 Wunderground天気予報

過去48時間のMETAR

飛行場予報(TAF)
発表時間: 1/16 13:05 GYT (1/16 17:05 UTC)
予報対象時間: 16日14時 GYT ~ 17日14時 GYT
風向・風速北東 4m/s
16日18時 GYT ~ 16日21時 GYT に徐々に
風向・風速不定 2m/s
視程10km以上
少しの雲 雲底高度 520m
全天の4割程度の雲 雲底高度 1100m
全天を覆う雲 雲底高度 2740m
TAF SYCJ 161705Z 1618/1718 05008KT 170V240 5000 SHRA RA SCT017 SCT032 BKN080
BECMG 1622/1701 VRB04KT 9999 FEW017 SCT036 OVC090